Time;durP1;ratioP1;P1;durP2;ratioP2;P2;SDS_P1;SDS_P2;PMS_P1;PMS_P2;Temp;Humidity;BMP_temperature;BMP_pressure;BME280_temperature;BME280_humidity;BME280_pressure;Samples;Min_cycle;Max_cycle;Signal;HPM_P1;HPM_P2
2024/03/05 00:02:08;;;;;;;11.52;4.22;;;4.50;99.90;;;;;;5038488;28;20037;-79
2024/03/05 00:04:34;;;;;;;10.98;3.65;;;4.50;99.90;;;;;;5040613;28;20030;-79
2024/03/05 00:07:00;;;;;;;7.90;3.22;;;4.50;99.90;;;;;;5054543;28;20121;-79
2024/03/05 00:09:26;;;;;;;7.55;3.78;;;4.60;99.90;;;;;;5039182;28;20022;-80
2024/03/05 00:11:51;;;;;;;8.85;3.60;;;4.50;99.90;;;;;;5054414;28;20022;-80
2024/03/05 00:14:17;;;;;;;8.18;3.40;;;4.50;99.90;;;;;;5038127;28;20051;-79
2024/03/05 00:16:43;;;;;;;7.82;2.95;;;4.50;99.90;;;;;;5053797;28;20108;-79
2024/03/05 00:19:09;;;;;;;9.30;3.33;;;;;;;;;;5054364;28;20600;-80
2024/03/05 00:21:35;;;;;;;9.90;3.25;;;4.40;99.90;;;;;;5053707;28;20485;-79
2024/03/05 00:24:01;;;;;;;9.57;3.08;;;;;;;;;;5053594;28;20022;-79
2024/03/05 00:26:27;;;;;;;10.15;3.63;;;4.40;99.90;;;;;;5052949;28;20033;-79
2024/03/05 00:28:55;;;;;;;8.55;3.22;;;4.30;99.90;;;;;;5054810;28;20023;-79
2024/03/05 00:31:22;;;;;;;6.82;2.97;;;4.30;99.90;;;;;;5052985;28;20025;-79
2024/03/05 00:33:48;;;;;;;10.18;3.33;;;4.20;99.90;;;;;;5053534;28;20532;-79
2024/03/05 00:36:14;;;;;;;7.63;2.90;;;4.20;99.90;;;;;;5038487;28;20072;-79
2024/03/05 00:38:40;;;;;;;9.57;3.53;;;4.20;99.90;;;;;;5041330;28;20051;-79
2024/03/05 00:41:06;;;;;;;8.77;3.72;;;4.20;99.90;;;;;;5037970;28;20021;-79
2024/03/05 00:43:33;;;;;;;10.60;3.17;;;4.10;99.90;;;;;;5039477;28;20053;-79
2024/03/05 00:46:00;;;;;;;7.25;2.92;;;4.10;99.90;;;;;;5037343;28;20026;-79
2024/03/05 00:48:27;;;;;;;13.35;4.25;;;4.00;99.90;;;;;;5036810;28;20111;-79
2024/03/05 00:50:53;;;;;;;6.47;2.90;;;4.00;99.90;;;;;;5038542;28;20013;-79
2024/03/05 00:53:20;;;;;;;7.90;3.67;;;3.90;99.90;;;;;;5039699;28;20025;-79
2024/03/05 00:55:46;;;;;;;9.60;3.38;;;3.90;99.90;;;;;;5039389;28;20018;-79
2024/03/05 00:58:12;;;;;;;8.80;3.47;;;3.90;99.90;;;;;;5038275;28;20021;-79
2024/03/05 01:00:38;;;;;;;8.77;3.17;;;3.90;99.90;;;;;;5037275;28;20507;-79
2024/03/05 01:03:04;;;;;;;13.10;3.80;;;3.90;99.90;;;;;;5037241;28;20033;-79
2024/03/05 01:05:30;;;;;;;9.23;3.42;;;3.80;99.90;;;;;;5037291;28;20048;-79
2024/03/05 01:07:56;;;;;;;11.32;3.53;;;3.90;99.90;;;;;;5037429;28;20025;-79
2024/03/05 01:10:21;;;;;;;9.82;3.80;;;4.90;99.90;;;;;;5039660;28;20033;-79
2024/03/05 01:12:48;;;;;;;6.95;2.88;;;3.80;99.90;;;;;;5036467;28;20026;-80
2024/03/05 01:15:14;;;;;;;9.07;3.75;;;3.80;99.90;;;;;;5039261;28;20032;-79
2024/03/05 01:17:39;;;;;;;7.80;3.10;;;3.70;99.90;;;;;;5038963;28;20030;-79
2024/03/05 01:20:10;;;;;;;9.68;4.28;;;3.70;99.90;;;;;;5037125;28;20373;-79
2024/03/05 01:22:36;;;;;;;9.43;3.20;;;3.70;99.90;;;;;;5037710;28;20083;-79
2024/03/05 01:25:02;;;;;;;9.48;3.53;;;4.90;99.90;;;;;;5038881;28;20029;-79
2024/03/05 01:27:28;;;;;;;8.48;2.90;;;3.70;99.90;;;;;;5036267;28;20022;-79
2024/03/05 01:29:54;;;;;;;9.18;3.00;;;;;;;;;;5035169;28;20033;-79
2024/03/05 01:32:19;;;;;;;7.78;3.33;;;3.70;99.90;;;;;;5036669;28;20025;-79
2024/03/05 01:34:48;;;;;;;12.15;3.78;;;3.70;99.90;;;;;;5037200;28;20396;-78
2024/03/05 01:37:14;;;;;;;10.77;3.72;;;3.70;99.90;;;;;;5038468;28;20024;-79
2024/03/05 01:39:39;;;;;;;9.15;4.07;;;3.70;99.90;;;;;;5036691;28;20034;-79
2024/03/05 01:42:08;;;;;;;9.35;3.38;;;3.60;99.90;;;;;;5036130;28;20477;-79
2024/03/05 01:44:34;;;;;;;12.82;3.83;;;5.60;99.90;;;;;;5036382;28;20036;-79
2024/03/05 01:47:01;;;;;;;12.55;4.53;;;3.60;99.90;;;;;;5038139;28;20112;-80
2024/03/05 01:49:28;;;;;;;11.02;3.95;;;3.60;99.90;;;;;;5038752;28;20026;-79
2024/03/05 01:51:58;;;;;;;10.95;4.28;;;3.60;99.90;;;;;;5037954;28;20030;-79
2024/03/05 01:54:26;;;;;;;13.27;5.13;;;3.60;99.90;;;;;;5036905;28;20067;-79
2024/03/05 01:56:57;;;;;;;13.43;5.57;;;3.60;99.90;;;;;;5037023;28;20017;-79
2024/03/05 01:59:23;;;;;;;14.68;4.70;;;3.70;99.90;;;;;;5037403;28;20029;-80
2024/03/05 02:01:50;;;;;;;14.70;4.93;;;3.60;99.90;;;;;;5036829;28;20370;-79
2024/03/05 02:04:17;;;;;;;14.40;5.10;;;3.60;99.90;;;;;;5036826;28;20542;-79
2024/03/05 02:06:44;;;;;;;12.90;4.75;;;3.70;99.90;;;;;;5038669;28;20018;-79
2024/03/05 02:09:12;;;;;;;12.70;4.07;;;3.70;99.90;;;;;;5036426;28;20036;-78
2024/03/05 02:11:40;;;;;;;19.40;5.55;;;3.60;99.90;;;;;;5034421;28;20022;-78
2024/03/05 02:14:07;;;;;;;12.55;4.97;;;3.60;99.90;;;;;;5034080;28;20500;-78
2024/03/05 02:16:34;;;;;;;13.15;4.80;;;3.60;99.90;;;;;;5035032;28;20018;-79
2024/03/05 02:18:59;;;;;;;13.20;5.40;;;3.60;99.90;;;;;;5037771;28;20045;-78
2024/03/05 02:21:25;;;;;;;15.13;5.10;;;3.70;99.90;;;;;;5037183;28;20469;-79
2024/03/05 02:23:50;;;;;;;12.27;4.80;;;3.60;99.90;;;;;;5036136;28;20049;-79
2024/03/05 02:26:17;;;;;;;19.67;5.30;;;3.70;99.90;;;;;;5037926;28;20017;-79
2024/03/05 02:28:46;;;;;;;14.63;4.72;;;3.70;99.90;;;;;;5033969;28;20112;-78
2024/03/05 02:31:12;;;;;;;14.50;5.00;;;3.70;99.90;;;;;;5036901;28;20487;-79
2024/03/05 02:33:39;;;;;;;18.25;6.68;;;3.60;99.90;;;;;;5033803;28;20033;-78
2024/03/05 02:36:08;;;;;;;13.75;5.70;;;3.70;99.90;;;;;;5035509;28;20060;-79
2024/03/05 02:38:34;;;;;;;15.15;5.47;;;3.70;99.90;;;;;;5036435;28;20025;-79
2024/03/05 02:40:59;;;;;;;16.70;5.65;;;3.70;99.90;;;;;;5040645;28;20033;-79
2024/03/05 02:43:25;;;;;;;16.48;5.65;;;3.70;99.90;;;;;;5039577;28;20026;-78
2024/03/05 02:45:51;;;;;;;16.63;5.57;;;3.70;99.90;;;;;;5041327;28;20112;-79
2024/03/05 02:48:17;;;;;;;11.77;5.38;;;3.70;99.90;;;;;;5038370;28;20076;-79
2024/03/05 02:50:43;;;;;;;17.92;6.25;;;3.60;99.90;;;;;;5040265;28;20033;-79
2024/03/05 02:53:09;;;;;;;16.92;4.95;;;3.70;99.90;;;;;;5040274;28;20037;-79
2024/03/05 02:55:38;;;;;;;15.07;5.57;;;3.60;99.90;;;;;;5039183;28;20068;-79
2024/03/05 02:58:06;;;;;;;13.02;4.93;;;3.60;99.90;;;;;;5039889;28;20017;-80
2024/03/05 03:00:32;;;;;;;12.83;5.30;;;3.70;99.90;;;;;;5038754;28;20017;-79
2024/03/05 03:02:58;;;;;;;14.65;5.35;;;3.70;99.90;;;;;;5039313;28;20127;-79
2024/03/05 03:05:24;;;;;;;15.80;5.90;;;;;;;;;;5036786;28;20030;-79
2024/03/05 03:07:51;;;;;;;17.23;5.75;;;;;;;;;;5037093;28;20041;-79
2024/03/05 03:10:17;;;;;;;20.92;5.97;;;3.70;99.90;;;;;;5039197;28;20026;-79
2024/03/05 03:12:47;;;;;;;15.23;5.80;;;3.70;99.90;;;;;;5039437;28;20041;-79
2024/03/05 03:15:12;;;;;;;14.45;5.45;;;3.70;99.90;;;;;;5038513;28;20024;-79
2024/03/05 03:17:40;;;;;;;14.00;5.05;;;3.70;99.90;;;;;;5038577;28;20112;-79
2024/03/05 03:20:07;;;;;;;16.27;5.07;;;3.70;99.90;;;;;;5038735;28;20022;-79
2024/03/05 03:22:34;;;;;;;13.80;5.75;;;3.70;99.90;;;;;;5035849;28;20021;-80
2024/03/05 03:25:00;;;;;;;16.88;5.70;;;3.70;99.90;;;;;;5039027;28;20041;-79
2024/03/05 03:27:26;;;;;;;14.38;5.88;;;3.70;99.90;;;;;;5036496;28;20025;-78
2024/03/05 03:29:52;;;;;;;14.82;5.90;;;3.70;99.90;;;;;;5036939;28;20078;-78
2024/03/05 03:32:21;;;;;;;16.88;5.22;;;3.80;99.90;;;;;;5036312;28;20112;-79
2024/03/05 03:34:47;;;;;;;;;;;3.80;99.90;;;;;;5038592;28;20469;-79
2024/03/05 03:37:13;;;;;;;17.95;5.72;;;3.80;99.90;;;;;;5037111;28;19911;-78
2024/03/05 03:39:42;;;;;;;15.35;5.57;;;3.80;99.90;;;;;;5039503;28;20021;-78
2024/03/05 03:42:10;;;;;;;14.18;6.07;;;3.80;99.90;;;;;;5038369;28;20064;-79
2024/03/05 03:44:37;;;;;;;15.47;6.57;;;3.90;99.90;;;;;;5039032;28;20022;-79
2024/03/05 03:47:04;;;;;;;17.05;5.70;;;3.90;99.90;;;;;;5036991;28;20477;-79
2024/03/05 03:49:29;;;;;;;16.33;6.63;;;3.90;99.90;;;;;;5038755;28;20021;-79
2024/03/05 03:51:55;;;;;;;16.55;5.93;;;4.00;99.90;;;;;;5038445;28;20051;-79
2024/03/05 03:54:21;;;;;;;14.07;6.05;;;4.00;99.90;;;;;;5038932;28;20025;-79
2024/03/05 03:56:48;;;;;;;15.88;6.10;;;4.00;99.90;;;;;;5038937;28;20018;-79
2024/03/05 03:59:14;;;;;;;15.57;6.63;;;4.00;99.90;;;;;;5037536;28;20064;-79
2024/03/05 04:01:44;;;;;;;15.05;5.70;;;4.10;99.90;;;;;;5039393;28;20064;-80
2024/03/05 04:04:12;;;;;;;18.40;6.13;;;4.10;99.90;;;;;;5038416;28;20459;-79
2024/03/05 04:06:39;;;;;;;19.13;6.95;;;4.20;99.90;;;;;;5039878;28;20022;-79
2024/03/05 04:09:08;;;;;;;18.75;7.25;;;4.20;99.90;;;;;;5038641;28;20089;-79
2024/03/05 04:11:37;;;;;;;15.25;5.78;;;4.20;99.90;;;;;;5038960;28;20393;-79
2024/03/05 04:14:04;;;;;;;16.52;6.88;;;4.30;99.90;;;;;;5039505;28;20040;-80
2024/03/05 04:16:34;;;;;;;16.52;6.72;;;4.30;99.90;;;;;;5038550;28;20025;-79
2024/03/05 04:19:00;;;;;;;17.42;6.95;;;4.30;99.90;;;;;;5039763;28;20117;-79
2024/03/05 04:21:26;;;;;;;15.27;6.30;;;4.30;99.90;;;;;;5040816;28;20028;-79
2024/03/05 04:23:52;;;;;;;21.17;6.57;;;4.30;99.90;;;;;;5037795;28;20014;-79
2024/03/05 04:26:23;;;;;;;17.30;6.53;;;4.30;99.90;;;;;;5040748;28;20025;-79
2024/03/05 04:28:52;;;;;;;20.25;6.68;;;4.40;99.90;;;;;;5037711;28;20032;-80
2024/03/05 04:31:30;;;;;;;19.35;6.55;;;4.40;99.90;;;;;;5038326;28;20021;-79
2024/03/05 04:33:59;;;;;;;22.20;7.35;;;4.50;99.90;;;;;;5037650;28;20022;-80
2024/03/05 04:36:24;;;;;;;16.17;7.13;;;4.50;99.90;;;;;;5037568;28;20063;-79
2024/03/05 04:38:52;;;;;;;18.70;6.45;;;4.60;99.90;;;;;;5041028;28;20033;-79
2024/03/05 04:41:17;;;;;;;22.50;7.68;;;4.60;99.90;;;;;;5036968;28;20083;-79
2024/03/05 04:43:43;;;;;;;19.75;7.07;;;6.50;99.90;;;;;;5040444;28;20081;-79
2024/03/05 04:46:11;;;;;;;19.92;6.95;;;4.70;99.90;;;;;;5038563;28;20483;-79
2024/03/05 04:48:38;;;;;;;19.92;7.75;;;4.70;99.90;;;;;;5040561;28;20029;-80
2024/03/05 04:51:06;;;;;;;20.77;7.50;;;4.80;99.90;;;;;;5037230;28;20481;-79
2024/03/05 04:53:31;;;;;;;21.08;8.13;;;4.80;99.90;;;;;;5036779;28;20029;-80
2024/03/05 04:55:58;;;;;;;19.48;8.00;;;4.80;99.90;;;;;;5037315;28;20048;-79
2024/03/05 04:58:24;;;;;;;18.67;7.15;;;4.80;99.90;;;;;;5037008;28;20029;-79
2024/03/05 05:00:49;;;;;;;21.10;7.65;;;4.80;99.90;;;;;;5036611;28;20370;-79
2024/03/05 05:03:16;;;;;;;18.50;6.97;;;4.90;99.90;;;;;;5037220;28;20052;-80
2024/03/05 05:05:44;;;;;;;19.17;6.88;;;4.90;99.90;;;;;;5037131;28;20508;-79
2024/03/05 05:08:11;;;;;;;21.45;7.32;;;4.90;99.90;;;;;;5037894;28;20022;-80
2024/03/05 05:10:36;;;;;;;19.50;7.25;;;5.00;99.90;;;;;;5038909;28;20160;-80
2024/03/05 05:13:03;;;;;;;21.58;7.78;;;4.90;99.90;;;;;;5036872;28;20083;-80
2024/03/05 05:15:29;;;;;;;24.13;8.77;;;4.90;99.90;;;;;;5039395;28;20477;-80
2024/03/05 05:17:58;;;;;;;25.90;9.95;;;5.00;99.90;;;;;;5038932;28;20018;-80
2024/03/05 05:20:24;;;;;;;26.33;11.05;;;5.00;99.90;;;;;;5039540;28;20025;-80
2024/03/05 05:22:49;;;;;;;28.80;9.70;;;5.00;99.90;;;;;;5040802;28;20043;-80
2024/03/05 05:25:19;;;;;;;24.60;8.10;;;5.10;99.90;;;;;;5040268;28;20055;-79
2024/03/05 05:27:48;;;;;;;19.17;7.43;;;5.10;99.90;;;;;;5036935;28;20477;-79
2024/03/05 05:30:15;;;;;;;;;;;5.10;99.90;;;;;;5038509;28;20081;-79
2024/03/05 05:32:42;;;;;;;21.63;8.30;;;5.10;99.90;;;;;;5039265;28;19909;-79
2024/03/05 05:35:08;;;;;;;22.65;8.25;;;5.10;99.90;;;;;;5038429;28;20030;-79
2024/03/05 05:37:34;;;;;;;23.63;9.23;;;5.10;99.90;;;;;;5037087;28;20022;-79
2024/03/05 05:40:00;;;;;;;22.05;8.52;;;5.10;99.90;;;;;;5036973;28;20028;-79
2024/03/05 05:42:27;;;;;;;25.58;8.93;;;5.20;99.90;;;;;;5037262;28;20029;-79
2024/03/05 05:44:53;;;;;;;23.38;8.57;;;5.20;99.90;;;;;;5038554;28;20021;-79
2024/03/05 05:47:19;;;;;;;20.48;7.53;;;5.20;99.90;;;;;;5040192;28;20082;-79
2024/03/05 05:49:45;;;;;;;27.65;9.68;;;5.20;99.90;;;;;;5038684;28;20025;-79
2024/03/05 05:52:11;;;;;;;23.35;8.43;;;5.30;99.90;;;;;;5036835;28;20034;-79
2024/03/05 05:54:43;;;;;;;21.58;8.63;;;5.30;99.90;;;;;;5036364;28;20151;-79
2024/03/05 05:57:12;;;;;;;27.20;9.27;;;5.80;99.90;;;;;;5033825;28;20025;-79
2024/03/05 05:59:38;;;;;;;27.70;9.23;;;5.40;99.90;;;;;;5035118;28;20025;-79
2024/03/05 06:02:05;;;;;;;32.38;11.30;;;5.40;99.90;;;;;;5035555;28;20041;-79
2024/03/05 06:04:33;;;;;;;29.90;10.73;;;5.40;99.90;;;;;;5034761;28;20444;-79
2024/03/05 06:06:58;;;;;;;27.52;9.02;;;5.40;99.90;;;;;;5035956;28;20025;-79
2024/03/05 06:09:28;;;;;;;29.95;10.73;;;5.50;99.90;;;;;;5038256;28;20041;-78
2024/03/05 06:11:55;;;;;;;30.27;10.50;;;5.60;99.90;;;;;;5034172;28;20108;-79
2024/03/05 06:14:21;;;;;;;24.02;9.88;;;6.00;99.90;;;;;;5037003;28;20026;-79
2024/03/05 06:16:46;;;;;;;30.85;10.00;;;5.60;99.90;;;;;;5038451;28;20024;-80
2024/03/05 06:19:13;;;;;;;41.47;11.63;;;5.60;99.90;;;;;;5037753;28;20025;-79
2024/03/05 06:21:38;;;;;;;31.33;11.23;;;5.60;99.90;;;;;;5037149;28;20022;-79
2024/03/05 06:24:07;;;;;;;31.63;11.05;;;6.40;99.90;;;;;;5038524;28;20384;-78
2024/03/05 06:26:36;;;;;;;29.90;12.10;;;5.70;99.90;;;;;;5039625;28;20093;-79
2024/03/05 06:29:06;;;;;;;28.67;10.82;;;5.70;99.90;;;;;;5038530;28;20025;-79
2024/03/05 06:31:32;;;;;;;32.53;10.60;;;5.70;99.90;;;;;;5039594;28;20048;-80
2024/03/05 06:33:58;;;;;;;32.30;11.88;;;5.80;99.90;;;;;;5040734;28;20051;-80
2024/03/05 06:36:24;;;;;;;35.45;11.43;;;5.70;99.90;;;;;;5041331;28;20025;-79
2024/03/05 06:38:49;;;;;;;26.60;10.90;;;5.80;99.90;;;;;;5043667;28;20500;-79
2024/03/05 06:41:15;;;;;;;30.02;10.25;;;5.80;99.90;;;;;;5041622;28;20017;-80
2024/03/05 06:43:42;;;;;;;28.73;10.27;;;5.80;99.90;;;;;;5043451;28;20035;-80
2024/03/05 06:46:09;;;;;;;33.15;11.35;;;5.80;99.90;;;;;;5041591;28;20021;-80
2024/03/05 06:48:37;;;;;;;30.80;11.75;;;5.80;99.90;;;;;;5043576;28;20021;-80
2024/03/05 06:51:16;;;;;;;35.08;11.93;;;5.90;99.90;;;;;;5044190;28;20029;-80
2024/03/05 06:56:41;;;;;;;33.42;11.68;;;5.90;99.90;;;;;;5044006;28;20055;-80
2024/03/05 06:59:08;;;;;;;32.83;11.95;;;5.90;99.90;;;;;;5042457;28;20021;-80
2024/03/05 07:01:34;;;;;;;34.55;11.25;;;5.90;99.90;;;;;;5041836;28;20025;-80
2024/03/05 07:04:01;;;;;;;36.25;11.95;;;6.00;99.90;;;;;;5043477;28;20029;-79
2024/03/05 07:06:27;;;;;;;33.83;12.63;;;6.00;99.90;;;;;;5041453;28;20024;-80
2024/03/05 07:08:54;;;;;;;31.67;11.68;;;6.00;99.90;;;;;;5041671;28;20529;-80
2024/03/05 07:11:21;;;;;;;36.70;12.25;;;6.10;99.90;;;;;;5043719;28;20022;-80
2024/03/05 07:13:48;;;;;;;38.00;12.88;;;6.10;99.90;;;;;;5041265;28;20124;-80
2024/03/05 07:16:15;;;;;;;39.58;12.68;;;6.10;99.90;;;;;;5040447;28;20083;-80
2024/03/05 07:18:43;;;;;;;35.72;13.25;;;6.10;99.90;;;;;;5040205;28;20013;-80
2024/03/05 07:21:09;;;;;;;37.85;12.70;;;;;;;;;;5041227;28;20061;-80
2024/03/05 07:23:35;;;;;;;43.05;13.30;;;6.20;99.90;;;;;;5041162;28;20025;-80
2024/03/05 07:26:01;;;;;;;38.50;12.68;;;6.30;99.90;;;;;;5041725;28;20034;-80
2024/03/05 07:28:27;;;;;;;37.25;12.32;;;6.30;99.90;;;;;;5039652;28;20036;-79
2024/03/05 07:30:53;;;;;;;39.85;13.32;;;6.30;99.90;;;;;;5039852;28;20025;-80
2024/03/05 07:33:20;;;;;;;38.58;12.80;;;6.40;99.90;;;;;;5039923;28;20041;-80
2024/03/05 07:35:46;;;;;;;40.38;12.88;;;6.40;99.90;;;;;;5039783;28;20556;-80
2024/03/05 07:38:14;;;;;;;47.15;14.52;;;6.40;99.90;;;;;;5039399;28;20037;-79
2024/03/05 07:40:47;;;;;;;44.13;13.73;;;6.40;99.90;;;;;;5040569;28;20021;-79
2024/03/05 07:43:13;;;;;;;42.75;14.23;;;6.40;99.90;;;;;;5040389;28;20033;-80
2024/03/05 07:45:39;;;;;;;38.17;13.75;;;6.50;99.90;;;;;;5039648;28;20059;-79
2024/03/05 07:48:06;;;;;;;36.45;13.88;;;6.50;99.90;;;;;;5039349;28;20029;-80
2024/03/05 07:50:32;;;;;;;43.35;14.07;;;6.50;99.90;;;;;;5039451;28;20025;-80
2024/03/05 07:52:58;;;;;;;42.25;14.68;;;6.50;99.90;;;;;;5041143;28;20425;-80
2024/03/05 07:55:27;;;;;;;38.88;13.90;;;6.50;99.90;;;;;;5040736;28;20022;-79
2024/03/05 07:57:53;;;;;;;;;;;6.50;99.90;;;;;;5040019;28;20021;-80
2024/03/05 08:00:20;;;;;;;35.72;11.98;;;6.50;99.90;;;;;;5039047;28;19905;-79
2024/03/05 08:02:47;;;;;;;39.78;13.63;;;6.50;99.90;;;;;;5037867;28;20451;-79
2024/03/05 08:05:17;;;;;;;42.20;13.93;;;6.50;99.90;;;;;;5039134;28;20420;-79
2024/03/05 08:07:45;;;;;;;37.92;14.20;;;6.60;99.90;;;;;;5039206;28;20052;-79
2024/03/05 08:10:12;;;;;;;40.80;14.57;;;6.50;99.90;;;;;;5038860;28;20033;-80
2024/03/05 08:12:39;;;;;;;43.17;14.52;;;6.60;99.90;;;;;;5038579;28;20032;-79
2024/03/05 08:15:06;;;;;;;39.55;14.43;;;6.60;99.90;;;;;;5037507;28;20025;-80
2024/03/05 08:17:33;;;;;;;39.25;14.55;;;6.60;99.90;;;;;;5036961;28;20079;-79
2024/03/05 08:19:59;;;;;;;46.85;15.73;;;6.70;99.90;;;;;;5038288;28;20024;-79
2024/03/05 08:22:25;;;;;;;48.17;16.05;;;6.50;99.90;;;;;;5037561;28;20029;-79
2024/03/05 08:24:51;;;;;;;45.53;15.20;;;6.70;99.90;;;;;;5037999;28;20410;-79
2024/03/05 08:27:16;;;;;;;52.78;16.23;;;6.70;99.90;;;;;;5037639;28;20036;-79
2024/03/05 08:29:43;;;;;;;45.40;15.43;;;6.80;99.90;;;;;;5037285;28;20056;-79
2024/03/05 08:32:09;;;;;;;48.53;15.77;;;6.80;99.90;;;;;;5038298;28;20021;-79
2024/03/05 08:34:37;;;;;;;49.67;16.17;;;6.80;99.90;;;;;;5037229;28;20105;-79
2024/03/05 08:37:02;;;;;;;43.58;16.02;;;6.80;99.90;;;;;;5038066;28;20018;-79
2024/03/05 08:39:28;;;;;;;43.20;14.95;;;6.80;99.90;;;;;;5037992;28;20036;-79
2024/03/05 08:41:54;;;;;;;44.60;15.93;;;6.80;99.90;;;;;;5039171;28;20105;-82
2024/03/05 08:44:19;;;;;;;50.00;17.92;;;6.80;99.90;;;;;;5037943;28;20030;-82
2024/03/05 08:46:45;;;;;;;50.38;16.80;;;6.80;99.90;;;;;;5037249;28;20412;-82
2024/03/05 08:49:11;;;;;;;45.40;16.65;;;;;;;;;;5038324;28;20068;-82
2024/03/05 08:51:38;;;;;;;48.00;15.85;;;6.90;99.90;;;;;;5037037;28;20041;-82
2024/03/05 08:54:08;;;;;;;45.05;16.05;;;6.90;99.90;;;;;;5038687;28;20052;-82
2024/03/05 08:56:35;;;;;;;48.42;16.23;;;6.90;99.90;;;;;;5037684;28;20106;-81
2024/03/05 08:59:00;;;;;;;48.13;15.88;;;6.90;99.90;;;;;;5038790;28;20028;-82
2024/03/05 09:01:28;;;;;;;55.33;16.83;;;6.90;99.90;;;;;;5037530;28;20033;-81
2024/03/05 09:03:53;;;;;;;50.08;15.68;;;6.90;99.90;;;;;;5037790;28;20022;-81
2024/03/05 09:06:19;;;;;;;53.63;15.77;;;;;;;;;;5037430;28;20362;-82
2024/03/05 09:08:45;;;;;;;49.83;17.45;;;6.90;99.90;;;;;;5037227;28;20048;-81
2024/03/05 09:11:11;;;;;;;58.97;17.13;;;;;;;;;;5038669;28;20021;-81
2024/03/05 09:13:41;;;;;;;47.10;17.10;;;7.00;99.90;;;;;;5039351;28;20025;-82
2024/03/05 09:16:07;;;;;;;52.38;17.20;;;7.00;99.90;;;;;;5037558;28;20021;-82
2024/03/05 09:18:32;;;;;;;55.97;16.80;;;7.00;99.90;;;;;;5037904;28;20496;-82
2024/03/05 09:20:58;;;;;;;53.47;17.50;;;7.00;99.90;;;;;;5037047;28;20056;-82
2024/03/05 09:23:24;;;;;;;48.50;15.95;;;9.50;99.90;;;;;;5036433;28;20017;-82
2024/03/05 09:25:49;;;;;;;54.33;17.38;;;7.10;99.90;;;;;;5038149;28;20111;-82
2024/03/05 09:28:15;;;;;;;51.70;17.13;;;7.10;99.90;;;;;;5038982;28;20025;-80
2024/03/05 09:30:42;;;;;;;50.25;16.95;;;7.10;99.90;;;;;;5038013;28;20040;-82
2024/03/05 09:33:09;;;;;;;42.03;15.55;;;7.20;99.90;;;;;;5037408;28;20089;-81
2024/03/05 09:35:34;;;;;;;46.20;15.60;;;7.30;99.90;;;;;;5037466;28;20385;-82
2024/03/05 09:38:02;;;;;;;45.55;16.63;;;7.30;99.90;;;;;;5038327;28;20022;-82
2024/03/05 09:40:28;;;;;;;48.65;16.33;;;7.30;99.90;;;;;;5037307;28;20017;-82
2024/03/05 09:42:58;;;;;;;52.88;16.98;;;7.30;99.90;;;;;;5036401;28;20392;-82
2024/03/05 09:45:25;;;;;;;50.28;16.90;;;7.50;99.90;;;;;;5037816;28;20045;-80
2024/03/05 09:47:51;;;;;;;46.40;16.25;;;7.50;99.90;;;;;;5039694;28;20080;-79
2024/03/05 09:50:17;;;;;;;54.28;16.35;;;;;;;;;;5038617;28;20034;-80
2024/03/05 09:52:46;;;;;;;50.60;17.60;;;7.50;99.90;;;;;;5038368;28;20022;-80
2024/03/05 09:55:12;;;;;;;48.42;17.08;;;;;;;;;;5036154;28;20024;-82
2024/03/05 09:57:40;;;;;;;49.95;17.50;;;;;;;;;;5037837;28;20523;-82
2024/03/05 10:00:10;;;;;;;49.25;17.27;;;7.60;99.90;;;;;;5039259;28;20018;-82
2024/03/05 10:02:37;;;;;;;46.72;17.20;;;7.60;99.90;;;;;;5037124;28;20041;-82
2024/03/05 10:05:08;;;;;;;47.57;15.83;;;7.80;99.90;;;;;;5037037;28;20077;-82
2024/03/05 10:07:34;;;;;;;43.70;16.00;;;7.70;99.90;;;;;;5038700;28;20044;-82
2024/03/05 10:10:10;;;;;;;48.65;17.55;;;7.70;99.90;;;;;;5040211;28;20025;-83
2024/03/05 10:12:36;;;;;;;47.22;16.40;;;7.80;99.90;;;;;;5050192;28;20029;-82
2024/03/05 10:15:24;;;;;;;44.15;16.73;;;7.80;99.90;;;;;;5049751;28;20094;-82
2024/03/05 10:17:52;;;;;;;54.80;18.05;;;7.90;99.90;;;;;;5049731;28;20056;-82
2024/03/05 10:20:36;;;;;;;47.30;16.77;;;7.90;99.90;;;;;;5050553;28;20021;-82
2024/03/05 10:23:06;;;;;;;46.20;17.33;;;8.00;99.90;;;;;;5048870;28;20029;-83
2024/03/05 10:25:34;;;;;;;51.97;18.40;;;8.10;99.90;;;;;;5049762;28;20085;-82
2024/03/05 10:28:01;;;;;;;47.70;17.13;;;8.20;99.90;;;;;;5049532;28;20036;-82
2024/03/05 10:30:31;;;;;;;47.92;17.83;;;8.20;99.90;;;;;;5049295;28;20033;-80
2024/03/05 10:33:02;;;;;;;44.25;17.15;;;8.30;99.90;;;;;;5042391;28;20021;-79
2024/03/05 10:35:29;;;;;;;46.45;17.10;;;8.40;99.90;;;;;;5035871;28;20452;-79
2024/03/05 10:38:03;;;;;;;47.00;16.77;;;8.40;99.90;;;;;;5036302;28;20516;-80
2024/03/05 10:40:34;;;;;;;48.10;17.15;;;8.50;99.90;;;;;;5036970;28;20365;-80
2024/03/05 10:43:10;;;;;;;47.05;17.35;;;8.40;99.90;;;;;;5036682;28;20493;-80
2024/03/05 10:45:38;;;;;;;42.72;16.42;;;8.50;99.90;;;;;;5036293;28;20087;-80
2024/03/05 10:48:07;;;;;;;43.67;18.13;;;8.60;99.90;;;;;;5036859;28;20057;-79
2024/03/05 10:50:38;;;;;;;39.17;15.85;;;8.60;99.90;;;;;;5036505;28;20029;-80
2024/03/05 10:53:07;;;;;;;34.70;15.93;;;8.60;99.90;;;;;;5037161;28;20021;-79
2024/03/05 10:55:39;;;;;;;40.35;15.82;;;;;;;;;;5036594;28;20397;-79
2024/03/05 10:58:13;;;;;;;34.85;14.82;;;8.60;99.90;;;;;;5037824;28;20527;-79
2024/03/05 11:00:40;;;;;;;41.47;16.45;;;8.60;99.90;;;;;;5036582;28;20064;-80
2024/03/05 11:03:07;;;;;;;46.45;16.70;;;8.70;99.90;;;;;;5039783;28;20044;-80
2024/03/05 11:05:52;;;;;;;45.28;17.10;;;8.80;99.90;;;;;;5038787;28;20021;-80
2024/03/05 11:08:20;;;;;;;39.10;16.15;;;8.80;99.90;;;;;;5041214;28;20101;-80
2024/03/05 11:11:01;;;;;;;36.75;15.50;;;8.90;99.90;;;;;;5038122;28;20109;-80
2024/03/05 11:13:28;;;;;;;42.38;16.52;;;8.90;99.90;;;;;;5038222;28;20029;-80
2024/03/05 11:15:55;;;;;;;37.40;15.30;;;8.90;99.90;;;;;;5039902;28;20021;-80
2024/03/05 11:18:28;;;;;;;41.20;15.75;;;9.00;99.90;;;;;;5039523;28;20444;-80
2024/03/05 11:20:54;;;;;;;40.13;15.50;;;9.00;99.90;;;;;;5038702;28;20018;-79
2024/03/05 11:23:20;;;;;;;40.40;14.95;;;9.10;99.90;;;;;;5038676;28;20029;-80
2024/03/05 11:25:48;;;;;;;43.47;17.02;;;9.10;99.90;;;;;;5040153;28;20026;-80
2024/03/05 11:28:18;;;;;;;36.72;14.95;;;9.20;99.90;;;;;;5040494;28;20033;-80
2024/03/05 11:30:44;;;;;;;35.03;14.48;;;9.20;99.90;;;;;;5039208;28;20017;-80
2024/03/05 11:33:11;;;;;;;35.53;14.98;;;9.20;99.90;;;;;;5038567;28;20120;-79
2024/03/05 11:35:46;;;;;;;35.88;14.60;;;9.10;99.90;;;;;;5038694;28;20028;-79
2024/03/05 11:38:18;;;;;;;37.90;14.93;;;9.10;99.90;;;;;;5038624;28;20017;-80
2024/03/05 11:40:46;;;;;;;34.92;14.57;;;9.00;99.90;;;;;;5040030;28;20022;-80
2024/03/05 11:43:34;;;;;;;40.08;15.60;;;9.10;99.90;;;;;;5039376;28;20025;-80
2024/03/05 11:45:59;;;;;;;37.08;14.32;;;9.10;99.90;;;;;;5039253;28;20025;-79
2024/03/05 11:48:25;;;;;;;31.88;14.73;;;9.00;99.90;;;;;;5038605;28;20022;-80
2024/03/05 11:50:53;;;;;;;34.13;14.93;;;9.00;99.90;;;;;;5039550;28;20029;-80
2024/03/05 11:53:20;;;;;;;39.50;14.57;;;8.90;99.90;;;;;;5038122;28;20514;-80
2024/03/05 11:55:46;;;;;;;36.40;13.70;;;8.90;99.90;;;;;;5039938;28;20025;-80
2024/03/05 11:58:14;;;;;;;35.22;13.55;;;8.90;99.90;;;;;;5040304;28;20018;-79
2024/03/05 12:00:40;;;;;;;29.00;12.40;;;8.90;99.90;;;;;;5039163;28;20388;-82
2024/03/05 12:03:08;;;;;;;39.97;15.88;;;8.90;99.90;;;;;;5039649;28;20089;-82
2024/03/05 12:05:34;;;;;;;33.45;13.90;;;8.90;99.90;;;;;;5040734;28;20029;-80
2024/03/05 12:08:07;;;;;;;29.98;13.45;;;8.80;99.90;;;;;;5038419;28;20028;-79
2024/03/05 12:10:35;;;;;;;32.45;14.20;;;8.80;99.90;;;;;;5041159;28;20374;-82
2024/03/05 12:13:07;;;;;;;38.72;14.10;;;8.90;99.90;;;;;;5038496;28;20044;-82
2024/03/05 12:15:35;;;;;;;28.00;12.25;;;8.80;99.90;;;;;;5038565;28;20025;-82
2024/03/05 12:18:11;;;;;;;33.20;13.52;;;8.80;99.90;;;;;;5038267;28;20038;-82
2024/03/05 12:20:41;;;;;;;30.15;13.48;;;;;;;;;;5037739;28;20077;-80
2024/03/05 12:23:08;;;;;;;31.85;12.68;;;8.70;99.90;;;;;;5038505;28;20051;-80
2024/03/05 12:25:34;;;;;;;28.83;13.02;;;8.70;99.90;;;;;;5039840;28;20033;-80
2024/03/05 12:28:00;;;;;;;29.40;12.18;;;8.70;99.90;;;;;;5039686;28;20075;-80
2024/03/05 12:30:33;;;;;;;31.55;13.23;;;8.70;99.90;;;;;;5040500;28;20097;-81
2024/03/05 12:33:00;;;;;;;30.98;12.02;;;8.70;99.90;;;;;;5039751;28;20033;-81
2024/03/05 12:35:26;;;;;;;27.48;12.35;;;;;;;;;;5038966;28;20022;-81
2024/03/05 12:37:52;;;;;;;26.58;10.85;;;8.80;99.90;;;;;;5039301;28;20037;-80
2024/03/05 12:40:20;;;;;;;30.08;11.95;;;8.80;99.90;;;;;;5039516;28;20039;-80
2024/03/05 12:42:47;;;;;;;27.10;11.75;;;8.80;99.90;;;;;;5038607;28;20022;-81
2024/03/05 12:45:15;;;;;;;25.10;11.40;;;8.80;99.90;;;;;;5036272;28;20033;-77
2024/03/05 12:47:41;;;;;;;23.85;11.27;;;;;;;;;;5035375;28;20057;-79
2024/03/05 12:50:08;;;;;;;30.33;10.35;;;8.70;99.90;;;;;;5035822;28;20036;-79
2024/03/05 12:52:34;;;;;;;27.05;11.55;;;8.70;99.90;;;;;;5034078;28;20511;-77